Main page
METAR-TAF:

METAR-TAF

Airports :

London, England

London City Airport

latitude: 51-30N, longitude: 000-03E, elevation: 5 m

Current weather observation

The report was made 21 minutes ago, at 07:50 UTC
Wind 6 kt from the Northeast
Temperature 3°C
Humidity 87%
Pressure 1024 hPa
Visibility 10 km or more

METAR: EGLC 040750Z AUTO 04006KT 9999 NCD 03/01 Q1024

Time: 08:11 (08:11 UTC)

Forecast

The report was made 3 hours and 11 minutes ago, at 05:00 UTC
Forecast valid from 04 at 06 UTC to 04 at 15 UTC
Wind 8 kt from the East
Visibility 10 km or more
no clouds below 1500 m and no cumulonimbus

TAF: EGLC 040500Z 0406/0415 10008KT CAVOK

Weather observations and forecasts of more than 4000 airports (METAR and TAF reports).

The available stations are represented by yellow and red dots on the map.

Hover mouse over dot to see the name of the station.

Then click to see weather observations and forecasts.

To change the map : click on the green buttons with a black cross to zoom in, on the green button with a dash to zoom out, or on the green arrows for adjacent maps.


METAR-TAF: